sensor_id;sensor_type;location;lat;lon;timestamp;P1;durP1;ratioP1;P2;durP2;ratioP2
42144;SDS011;27813;43.516;11.890;2023-02-21T00:02:24;22.95;;;12.65;;
42144;SDS011;27813;43.516;11.890;2023-02-21T00:06:46;22.20;;;13.80;;
42144;SDS011;27813;43.516;11.890;2023-02-21T00:11:08;26.55;;;14.77;;
42144;SDS011;27813;43.516;11.890;2023-02-21T00:15:30;34.53;;;17.35;;
42144;SDS011;27813;43.516;11.890;2023-02-21T00:19:53;35.03;;;18.92;;
42144;SDS011;27813;43.516;11.890;2023-02-21T00:24:19;40.55;;;20.55;;
42144;SDS011;27813;43.516;11.890;2023-02-21T00:28:41;41.63;;;19.33;;
42144;SDS011;27813;43.516;11.890;2023-02-21T05:36:56;21.38;;;12.27;;
42144;SDS011;27813;43.516;11.890;2023-02-21T05:41:01;24.73;;;12.55;;
42144;SDS011;27813;43.516;11.890;2023-02-21T05:45:06;22.50;;;13.20;;
42144;SDS011;27813;43.516;11.890;2023-02-21T05:49:12;22.60;;;14.07;;
42144;SDS011;27813;43.516;11.890;2023-02-21T05:53:16;21.08;;;12.45;;
42144;SDS011;27813;43.516;11.890;2023-02-21T05:57:21;19.58;;;11.95;;
42144;SDS011;27813;43.516;11.890;2023-02-21T06:01:25;25.02;;;14.27;;
42144;SDS011;27813;43.516;11.890;2023-02-21T06:05:29;16.45;;;11.00;;
42144;SDS011;27813;43.516;11.890;2023-02-21T06:09:34;17.73;;;11.55;;
42144;SDS011;27813;43.516;11.890;2023-02-21T06:13:38;17.05;;;10.13;;
42144;SDS011;27813;43.516;11.890;2023-02-21T06:17:42;17.88;;;11.02;;
42144;SDS011;27813;43.516;11.890;2023-02-21T06:21:47;23.17;;;13.32;;
42144;SDS011;27813;43.516;11.890;2023-02-21T06:25:51;18.88;;;11.38;;
42144;SDS011;27813;43.516;11.890;2023-02-21T06:29:56;20.42;;;11.45;;
42144;SDS011;27813;43.516;11.890;2023-02-21T06:34:00;17.02;;;10.93;;
42144;SDS011;27813;43.516;11.890;2023-02-21T06:38:04;18.67;;;11.50;;
42144;SDS011;27813;43.516;11.890;2023-02-21T06:42:13;21.15;;;11.63;;
42144;SDS011;27813;43.516;11.890;2023-02-21T06:46:21;23.17;;;13.35;;
42144;SDS011;27813;43.516;11.890;2023-02-21T06:50:27;28.98;;;15.73;;
42144;SDS011;27813;43.516;11.890;2023-02-21T06:54:32;26.50;;;15.15;;
42144;SDS011;27813;43.516;11.890;2023-02-21T06:58:37;19.45;;;13.77;;
42144;SDS011;27813;43.516;11.890;2023-02-21T07:02:41;25.08;;;13.23;;
42144;SDS011;27813;43.516;11.890;2023-02-21T07:06:46;24.45;;;14.00;;
42144;SDS011;27813;43.516;11.890;2023-02-21T07:10:51;24.23;;;14.35;;
42144;SDS011;27813;43.516;11.890;2023-02-21T07:18:59;21.38;;;14.02;;
42144;SDS011;27813;43.516;11.890;2023-02-21T07:23:04;21.52;;;13.25;;
42144;SDS011;27813;43.516;11.890;2023-02-21T07:27:08;22.10;;;13.45;;
42144;SDS011;27813;43.516;11.890;2023-02-21T07:35:20;24.75;;;14.68;;
42144;SDS011;27813;43.516;11.890;2023-02-21T07:39:25;24.05;;;15.27;;
42144;SDS011;27813;43.516;11.890;2023-02-21T07:47:34;37.03;;;23.23;;
42144;SDS011;27813;43.516;11.890;2023-02-21T07:51:38;45.00;;;25.92;;
42144;SDS011;27813;43.516;11.890;2023-02-21T07:55:43;42.63;;;24.38;;
42144;SDS011;27813;43.516;11.890;2023-02-21T07:59:47;43.60;;;25.23;;
42144;SDS011;27813;43.516;11.890;2023-02-21T08:03:51;65.07;;;28.83;;
42144;SDS011;27813;43.516;11.890;2023-02-21T08:07:56;33.05;;;19.52;;
42144;SDS011;27813;43.516;11.890;2023-02-21T08:12:00;31.38;;;19.42;;
42144;SDS011;27813;43.516;11.890;2023-02-21T08:16:05;29.30;;;17.70;;
42144;SDS011;27813;43.516;11.890;2023-02-21T08:20:10;28.33;;;18.13;;
42144;SDS011;27813;43.516;11.890;2023-02-21T08:24:15;30.83;;;19.52;;
42144;SDS011;27813;43.516;11.890;2023-02-21T08:28:20;48.10;;;29.75;;
42144;SDS011;27813;43.516;11.890;2023-02-21T08:32:26;38.42;;;21.50;;
42144;SDS011;27813;43.516;11.890;2023-02-21T08:36:34;44.47;;;27.70;;
42144;SDS011;27813;43.516;11.890;2023-02-21T08:40:40;43.58;;;26.02;;
42144;SDS011;27813;43.516;11.890;2023-02-21T08:44:45;37.63;;;22.52;;
42144;SDS011;27813;43.516;11.890;2023-02-21T08:48:50;29.88;;;19.55;;
42144;SDS011;27813;43.516;11.890;2023-02-21T08:52:54;33.47;;;21.52;;
42144;SDS011;27813;43.516;11.890;2023-02-21T08:56:59;29.98;;;17.90;;
42144;SDS011;27813;43.516;11.890;2023-02-21T09:01:03;25.65;;;16.67;;
42144;SDS011;27813;43.516;11.890;2023-02-21T09:09:13;27.75;;;17.25;;
42144;SDS011;27813;43.516;11.890;2023-02-21T09:13:18;23.95;;;16.88;;
42144;SDS011;27813;43.516;11.890;2023-02-21T09:17:22;26.83;;;16.38;;
42144;SDS011;27813;43.516;11.890;2023-02-21T09:21:26;28.02;;;17.85;;
42144;SDS011;27813;43.516;11.890;2023-02-21T09:25:31;23.27;;;15.80;;
42144;SDS011;27813;43.516;11.890;2023-02-21T09:29:36;36.83;;;18.05;;
42144;SDS011;27813;43.516;11.890;2023-02-21T09:33:48;27.27;;;17.02;;
42144;SDS011;27813;43.516;11.890;2023-02-21T09:42:00;28.58;;;17.27;;
42144;SDS011;27813;43.516;11.890;2023-02-21T09:46:15;36.08;;;19.45;;
42144;SDS011;27813;43.516;11.890;2023-02-21T09:50:48;39.35;;;20.00;;
42144;SDS011;27813;43.516;11.890;2023-02-21T09:54:56;36.55;;;20.60;;
42144;SDS011;27813;43.516;11.890;2023-02-21T09:59:02;32.13;;;17.80;;
42144;SDS011;27813;43.516;11.890;2023-02-21T10:03:24;29.75;;;17.88;;
42144;SDS011;27813;43.516;11.890;2023-02-21T10:07:54;28.65;;;17.63;;
42144;SDS011;27813;43.516;11.890;2023-02-21T10:12:21;23.85;;;15.07;;
42144;SDS011;27813;43.516;11.890;2023-02-21T10:21:20;19.45;;;11.60;;
42144;SDS011;27813;43.516;11.890;2023-02-21T10:25:41;15.82;;;10.57;;
42144;SDS011;27813;43.516;11.890;2023-02-21T10:29:50;20.65;;;13.40;;
42144;SDS011;27813;43.516;11.890;2023-02-21T10:34:02;23.67;;;14.82;;
42144;SDS011;27813;43.516;11.890;2023-02-21T10:38:17;24.98;;;15.63;;
42144;SDS011;27813;43.516;11.890;2023-02-21T10:42:37;27.52;;;15.52;;
42144;SDS011;27813;43.516;11.890;2023-02-21T10:46:46;20.63;;;13.75;;
42144;SDS011;27813;43.516;11.890;2023-02-21T10:51:15;21.42;;;14.63;;
42144;SDS011;27813;43.516;11.890;2023-02-21T10:55:21;20.45;;;12.93;;
42144;SDS011;27813;43.516;11.890;2023-02-21T10:59:36;21.48;;;13.20;;
42144;SDS011;27813;43.516;11.890;2023-02-21T11:03:45;21.85;;;12.32;;
42144;SDS011;27813;43.516;11.890;2023-02-21T11:08:04;23.30;;;14.73;;
42144;SDS011;27813;43.516;11.890;2023-02-21T11:16:26;23.35;;;15.57;;
42144;SDS011;27813;43.516;11.890;2023-02-21T11:20:33;24.80;;;15.82;;
42144;SDS011;27813;43.516;11.890;2023-02-21T11:29:04;26.17;;;15.80;;
42144;SDS011;27813;43.516;11.890;2023-02-21T11:33:17;25.05;;;16.08;;
42144;SDS011;27813;43.516;11.890;2023-02-21T11:37:25;23.75;;;15.07;;
42144;SDS011;27813;43.516;11.890;2023-02-21T11:45:54;21.88;;;15.13;;
42144;SDS011;27813;43.516;11.890;2023-02-21T11:50:10;20.52;;;14.85;;
42144;SDS011;27813;43.516;11.890;2023-02-21T11:54:30;21.48;;;13.43;;
42144;SDS011;27813;43.516;11.890;2023-02-21T11:58:43;21.67;;;14.27;;
42144;SDS011;27813;43.516;11.890;2023-02-21T12:15:46;22.95;;;14.90;;
42144;SDS011;27813;43.516;11.890;2023-02-21T12:20:03;22.42;;;15.90;;
42144;SDS011;27813;43.516;11.890;2023-02-21T12:24:28;27.20;;;16.00;;
42144;SDS011;27813;43.516;11.890;2023-02-21T12:28:45;15.60;;;12.13;;
42144;SDS011;27813;43.516;11.890;2023-02-21T12:33:09;19.92;;;12.57;;
42144;SDS011;27813;43.516;11.890;2023-02-21T12:42:19;20.25;;;12.02;;
42144;SDS011;27813;43.516;11.890;2023-02-21T12:46:27;15.85;;;11.65;;
42144;SDS011;27813;43.516;11.890;2023-02-21T12:50:42;17.02;;;12.55;;
42144;SDS011;27813;43.516;11.890;2023-02-21T12:59:20;18.67;;;11.73;;
42144;SDS011;27813;43.516;11.890;2023-02-21T13:04:02;17.00;;;11.98;;
42144;SDS011;27813;43.516;11.890;2023-02-21T13:13:13;14.85;;;10.43;;
42144;SDS011;27813;43.516;11.890;2023-02-21T13:17:21;15.30;;;10.80;;
42144;SDS011;27813;43.516;11.890;2023-02-21T13:26:40;15.93;;;11.02;;
42144;SDS011;27813;43.516;11.890;2023-02-21T13:30:25;14.40;;;10.65;;
42144;SDS011;27813;43.516;11.890;2023-02-21T13:34:35;15.13;;;10.43;;
42144;SDS011;27813;43.516;11.890;2023-02-21T13:38:44;15.50;;;9.87;;
42144;SDS011;27813;43.516;11.890;2023-02-21T13:43:00;16.17;;;11.07;;
42144;SDS011;27813;43.516;11.890;2023-02-21T13:47:14;35.03;;;17.50;;
42144;SDS011;27813;43.516;11.890;2023-02-21T13:56:32;20.67;;;11.10;;
42144;SDS011;27813;43.516;11.890;2023-02-21T14:04:53;16.10;;;11.40;;
42144;SDS011;27813;43.516;11.890;2023-02-21T14:09:02;17.17;;;11.40;;
42144;SDS011;27813;43.516;11.890;2023-02-21T14:17:39;17.42;;;10.73;;
42144;SDS011;27813;43.516;11.890;2023-02-21T14:21:44;18.27;;;11.02;;
42144;SDS011;27813;43.516;11.890;2023-02-21T14:25:55;17.80;;;11.40;;
42144;SDS011;27813;43.516;11.890;2023-02-21T14:30:21;16.75;;;9.45;;
42144;SDS011;27813;43.516;11.890;2023-02-21T14:38:41;15.90;;;9.80;;
42144;SDS011;27813;43.516;11.890;2023-02-21T14:56:07;14.07;;;8.75;;
42144;SDS011;27813;43.516;11.890;2023-02-21T15:00:17;12.93;;;9.18;;
42144;SDS011;27813;43.516;11.890;2023-02-21T15:04:34;14.48;;;9.30;;
42144;SDS011;27813;43.516;11.890;2023-02-21T15:08:45;15.85;;;8.57;;
42144;SDS011;27813;43.516;11.890;2023-02-21T15:12:54;14.38;;;9.85;;
42144;SDS011;27813;43.516;11.890;2023-02-21T15:17:11;10.85;;;7.85;;
42144;SDS011;27813;43.516;11.890;2023-02-21T15:21:20;12.48;;;8.38;;
42144;SDS011;27813;43.516;11.890;2023-02-21T15:25:24;10.27;;;7.10;;
42144;SDS011;27813;43.516;11.890;2023-02-21T15:33:33;11.57;;;8.03;;
42144;SDS011;27813;43.516;11.890;2023-02-21T15:37:45;11.07;;;7.55;;
42144;SDS011;27813;43.516;11.890;2023-02-21T15:41:50;14.55;;;7.95;;
42144;SDS011;27813;43.516;11.890;2023-02-21T15:45:56;13.38;;;8.13;;
42144;SDS011;27813;43.516;11.890;2023-02-21T15:50:16;15.20;;;8.15;;
42144;SDS011;27813;43.516;11.890;2023-02-21T15:54:29;15.63;;;8.98;;
42144;SDS011;27813;43.516;11.890;2023-02-21T15:58:46;13.00;;;9.47;;
42144;SDS011;27813;43.516;11.890;2023-02-21T16:07:51;15.15;;;9.45;;
42144;SDS011;27813;43.516;11.890;2023-02-21T16:16:26;14.75;;;10.30;;
42144;SDS011;27813;43.516;11.890;2023-02-21T16:20:38;18.73;;;10.55;;
42144;SDS011;27813;43.516;11.890;2023-02-21T16:24:44;15.32;;;10.00;;
42144;SDS011;27813;43.516;11.890;2023-02-21T16:28:48;19.45;;;11.30;;
42144;SDS011;27813;43.516;11.890;2023-02-21T16:37:05;17.30;;;11.75;;
42144;SDS011;27813;43.516;11.890;2023-02-21T16:41:14;17.90;;;11.40;;
42144;SDS011;27813;43.516;11.890;2023-02-21T16:45:19;17.70;;;11.85;;
42144;SDS011;27813;43.516;11.890;2023-02-21T16:49:24;19.23;;;11.90;;
42144;SDS011;27813;43.516;11.890;2023-02-21T16:53:36;17.58;;;10.80;;
42144;SDS011;27813;43.516;11.890;2023-02-21T16:57:54;16.98;;;10.77;;
42144;SDS011;27813;43.516;11.890;2023-02-21T17:02:12;17.80;;;10.75;;
42144;SDS011;27813;43.516;11.890;2023-02-21T17:06:18;37.85;;;20.88;;
42144;SDS011;27813;43.516;11.890;2023-02-21T17:10:24;25.52;;;16.17;;
42144;SDS011;27813;43.516;11.890;2023-02-21T17:14:29;24.65;;;14.65;;
42144;SDS011;27813;43.516;11.890;2023-02-21T17:18:33;22.40;;;12.95;;
42144;SDS011;27813;43.516;11.890;2023-02-21T17:22:37;22.70;;;14.20;;
42144;SDS011;27813;43.516;11.890;2023-02-21T17:26:43;23.05;;;13.23;;
42144;SDS011;27813;43.516;11.890;2023-02-21T17:30:48;30.30;;;16.85;;
42144;SDS011;27813;43.516;11.890;2023-02-21T17:34:53;31.25;;;20.45;;
42144;SDS011;27813;43.516;11.890;2023-02-21T17:38:57;25.77;;;18.08;;
42144;SDS011;27813;43.516;11.890;2023-02-21T17:47:10;24.40;;;15.88;;
42144;SDS011;27813;43.516;11.890;2023-02-21T17:55:26;20.67;;;12.75;;
42144;SDS011;27813;43.516;11.890;2023-02-21T17:59:32;21.00;;;11.85;;
42144;SDS011;27813;43.516;11.890;2023-02-21T18:03:40;19.48;;;12.20;;
42144;SDS011;27813;43.516;11.890;2023-02-21T18:07:47;22.25;;;11.80;;
42144;SDS011;27813;43.516;11.890;2023-02-21T18:11:52;20.40;;;12.68;;
42144;SDS011;27813;43.516;11.890;2023-02-21T18:15:57;22.40;;;12.73;;
42144;SDS011;27813;43.516;11.890;2023-02-21T18:20:03;18.88;;;10.77;;
42144;SDS011;27813;43.516;11.890;2023-02-21T18:24:12;17.50;;;10.88;;
42144;SDS011;27813;43.516;11.890;2023-02-21T18:28:18;19.45;;;11.32;;
42144;SDS011;27813;43.516;11.890;2023-02-21T18:36:27;18.67;;;11.80;;
42144;SDS011;27813;43.516;11.890;2023-02-21T18:44:40;21.48;;;12.45;;
42144;SDS011;27813;43.516;11.890;2023-02-21T18:48:45;22.77;;;13.63;;
42144;SDS011;27813;43.516;11.890;2023-02-21T18:52:51;23.77;;;14.32;;
42144;SDS011;27813;43.516;11.890;2023-02-21T18:56:55;21.83;;;14.15;;
42144;SDS011;27813;43.516;11.890;2023-02-21T19:01:01;23.35;;;13.95;;
42144;SDS011;27813;43.516;11.890;2023-02-21T19:05:06;20.52;;;12.38;;
42144;SDS011;27813;43.516;11.890;2023-02-21T19:09:12;21.42;;;13.10;;
42144;SDS011;27813;43.516;11.890;2023-02-21T19:13:17;29.17;;;15.68;;
42144;SDS011;27813;43.516;11.890;2023-02-21T19:17:22;27.92;;;14.88;;
42144;SDS011;27813;43.516;11.890;2023-02-21T19:21:26;20.48;;;12.50;;
42144;SDS011;27813;43.516;11.890;2023-02-21T19:25:31;19.35;;;12.10;;
42144;SDS011;27813;43.516;11.890;2023-02-21T19:33:39;25.33;;;15.00;;
42144;SDS011;27813;43.516;11.890;2023-02-21T19:41:48;19.60;;;11.98;;
42144;SDS011;27813;43.516;11.890;2023-02-21T19:45:53;21.38;;;13.65;;
42144;SDS011;27813;43.516;11.890;2023-02-21T19:49:58;24.13;;;14.00;;
42144;SDS011;27813;43.516;11.890;2023-02-21T19:54:05;27.40;;;12.57;;
42144;SDS011;27813;43.516;11.890;2023-02-21T19:58:10;23.02;;;13.20;;
42144;SDS011;27813;43.516;11.890;2023-02-21T20:02:15;21.02;;;13.35;;
42144;SDS011;27813;43.516;11.890;2023-02-21T20:06:21;21.35;;;12.70;;
42144;SDS011;27813;43.516;11.890;2023-02-21T20:10:31;19.73;;;13.15;;
42144;SDS011;27813;43.516;11.890;2023-02-21T20:14:39;21.05;;;12.45;;
42144;SDS011;27813;43.516;11.890;2023-02-21T20:18:49;22.27;;;12.57;;
42144;SDS011;27813;43.516;11.890;2023-02-21T20:23:00;20.58;;;12.60;;
42144;SDS011;27813;43.516;11.890;2023-02-21T20:27:06;18.83;;;11.10;;
42144;SDS011;27813;43.516;11.890;2023-02-21T20:31:12;19.77;;;12.32;;
42144;SDS011;27813;43.516;11.890;2023-02-21T20:35:23;20.02;;;12.20;;
42144;SDS011;27813;43.516;11.890;2023-02-21T20:39:32;23.75;;;14.00;;
42144;SDS011;27813;43.516;11.890;2023-02-21T20:43:41;20.05;;;12.13;;
42144;SDS011;27813;43.516;11.890;2023-02-21T20:47:57;20.30;;;11.63;;
42144;SDS011;27813;43.516;11.890;2023-02-21T20:52:03;16.92;;;10.73;;
42144;SDS011;27813;43.516;11.890;2023-02-21T20:56:11;21.23;;;13.55;;
42144;SDS011;27813;43.516;11.890;2023-02-21T21:00:18;22.08;;;12.30;;
42144;SDS011;27813;43.516;11.890;2023-02-21T21:04:29;21.45;;;12.02;;
42144;SDS011;27813;43.516;11.890;2023-02-21T21:08:39;19.23;;;11.18;;
42144;SDS011;27813;43.516;11.890;2023-02-21T21:12:45;19.50;;;11.82;;
42144;SDS011;27813;43.516;11.890;2023-02-21T21:16:52;21.65;;;13.07;;
42144;SDS011;27813;43.516;11.890;2023-02-21T21:20:59;20.45;;;12.55;;
42144;SDS011;27813;43.516;11.890;2023-02-21T21:25:05;19.60;;;12.90;;
42144;SDS011;27813;43.516;11.890;2023-02-21T21:29:12;22.38;;;13.73;;
42144;SDS011;27813;43.516;11.890;2023-02-21T21:33:20;20.90;;;12.52;;
42144;SDS011;27813;43.516;11.890;2023-02-21T21:37:26;21.08;;;12.38;;
42144;SDS011;27813;43.516;11.890;2023-02-21T21:41:32;23.25;;;12.25;;
42144;SDS011;27813;43.516;11.890;2023-02-21T21:45:37;18.13;;;10.55;;
42144;SDS011;27813;43.516;11.890;2023-02-21T21:49:47;15.93;;;10.57;;
42144;SDS011;27813;43.516;11.890;2023-02-21T21:53:52;22.77;;;14.45;;
42144;SDS011;27813;43.516;11.890;2023-02-21T21:58:01;20.73;;;11.85;;
42144;SDS011;27813;43.516;11.890;2023-02-21T22:02:12;18.67;;;11.90;;
42144;SDS011;27813;43.516;11.890;2023-02-21T22:06:17;21.10;;;13.77;;
42144;SDS011;27813;43.516;11.890;2023-02-21T22:10:23;22.45;;;12.65;;
42144;SDS011;27813;43.516;11.890;2023-02-21T22:14:29;17.08;;;11.07;;
42144;SDS011;27813;43.516;11.890;2023-02-21T22:18:33;17.08;;;11.82;;
42144;SDS011;27813;43.516;11.890;2023-02-21T22:22:38;17.85;;;10.20;;
42144;SDS011;27813;43.516;11.890;2023-02-21T22:26:42;19.73;;;10.45;;
42144;SDS011;27813;43.516;11.890;2023-02-21T22:34:51;16.47;;;11.30;;
42144;SDS011;27813;43.516;11.890;2023-02-21T22:38:57;17.90;;;12.02;;
42144;SDS011;27813;43.516;11.890;2023-02-21T22:43:10;21.38;;;10.73;;
42144;SDS011;27813;43.516;11.890;2023-02-21T22:47:16;19.08;;;11.07;;
42144;SDS011;27813;43.516;11.890;2023-02-21T22:51:25;20.02;;;11.50;;
42144;SDS011;27813;43.516;11.890;2023-02-21T22:55:30;18.17;;;12.10;;
42144;SDS011;27813;43.516;11.890;2023-02-21T22:59:35;16.23;;;10.93;;
42144;SDS011;27813;43.516;11.890;2023-02-21T23:03:40;21.08;;;12.65;;
42144;SDS011;27813;43.516;11.890;2023-02-21T23:07:45;18.08;;;11.02;;
42144;SDS011;27813;43.516;11.890;2023-02-21T23:11:55;18.92;;;10.90;;
42144;SDS011;27813;43.516;11.890;2023-02-21T23:16:02;20.92;;;11.88;;
42144;SDS011;27813;43.516;11.890;2023-02-21T23:24:21;19.23;;;10.83;;
42144;SDS011;27813;43.516;11.890;2023-02-21T23:28:26;18.63;;;11.45;;
42144;SDS011;27813;43.516;11.890;2023-02-21T23:32:32;19.08;;;11.48;;
42144;SDS011;27813;43.516;11.890;2023-02-21T23:36:37;18.48;;;12.32;;
42144;SDS011;27813;43.516;11.890;2023-02-21T23:40:46;21.17;;;12.88;;
42144;SDS011;27813;43.516;11.890;2023-02-21T23:44:52;26.88;;;14.07;;
42144;SDS011;27813;43.516;11.890;2023-02-21T23:48:57;21.73;;;13.65;;
42144;SDS011;27813;43.516;11.890;2023-02-21T23:57:07;19.65;;;11.85;;
